sensor_id;sensor_type;location;lat;lon;timestamp;P1;durP1;ratioP1;P2;durP2;ratioP2
9160;SDS011;4615;51.340;8.288;2024-01-07T00:00:13;10.60;;;9.45;;
9160;SDS011;4615;51.340;8.288;2024-01-07T00:02:41;10.03;;;9.00;;
9160;SDS011;4615;51.340;8.288;2024-01-07T00:05:07;9.70;;;8.70;;
9160;SDS011;4615;51.340;8.288;2024-01-07T00:07:33;10.00;;;8.95;;
9160;SDS011;4615;51.340;8.288;2024-01-07T00:10:00;10.77;;;9.30;;
9160;SDS011;4615;51.340;8.288;2024-01-07T00:12:26;9.75;;;8.75;;
9160;SDS011;4615;51.340;8.288;2024-01-07T00:14:53;10.63;;;9.63;;
9160;SDS011;4615;51.340;8.288;2024-01-07T00:17:19;11.15;;;9.75;;
9160;SDS011;4615;51.340;8.288;2024-01-07T00:19:47;10.18;;;9.10;;
9160;SDS011;4615;51.340;8.288;2024-01-07T00:22:13;9.32;;;8.43;;
9160;SDS011;4615;51.340;8.288;2024-01-07T00:24:39;8.80;;;7.90;;
9160;SDS011;4615;51.340;8.288;2024-01-07T00:27:06;8.80;;;7.90;;
9160;SDS011;4615;51.340;8.288;2024-01-07T00:29:33;8.95;;;7.93;;
9160;SDS011;4615;51.340;8.288;2024-01-07T00:32:00;8.93;;;8.02;;
9160;SDS011;4615;51.340;8.288;2024-01-07T00:34:27;8.95;;;7.88;;
9160;SDS011;4615;51.340;8.288;2024-01-07T00:36:54;9.63;;;8.30;;
9160;SDS011;4615;51.340;8.288;2024-01-07T00:39:21;9.65;;;8.65;;
9160;SDS011;4615;51.340;8.288;2024-01-07T00:41:47;9.80;;;8.55;;
9160;SDS011;4615;51.340;8.288;2024-01-07T00:44:13;11.63;;;8.82;;
9160;SDS011;4615;51.340;8.288;2024-01-07T00:46:40;10.68;;;9.10;;
9160;SDS011;4615;51.340;8.288;2024-01-07T00:49:06;10.55;;;8.93;;
9160;SDS011;4615;51.340;8.288;2024-01-07T00:51:32;11.15;;;8.80;;
9160;SDS011;4615;51.340;8.288;2024-01-07T00:54:00;14.02;;;9.65;;
9160;SDS011;4615;51.340;8.288;2024-01-07T00:56:27;13.43;;;9.48;;
9160;SDS011;4615;51.340;8.288;2024-01-07T00:58:53;12.15;;;9.70;;
9160;SDS011;4615;51.340;8.288;2024-01-07T01:01:20;11.32;;;9.63;;
9160;SDS011;4615;51.340;8.288;2024-01-07T01:03:46;11.55;;;9.75;;
9160;SDS011;4615;51.340;8.288;2024-01-07T01:06:12;10.75;;;9.63;;
9160;SDS011;4615;51.340;8.288;2024-01-07T01:08:39;11.10;;;9.40;;
9160;SDS011;4615;51.340;8.288;2024-01-07T01:11:07;10.90;;;9.73;;
9160;SDS011;4615;51.340;8.288;2024-01-07T01:13:34;10.25;;;9.25;;
9160;SDS011;4615;51.340;8.288;2024-01-07T01:16:01;10.38;;;9.27;;
9160;SDS011;4615;51.340;8.288;2024-01-07T01:18:27;9.90;;;8.90;;
9160;SDS011;4615;51.340;8.288;2024-01-07T01:20:55;10.87;;;9.27;;
9160;SDS011;4615;51.340;8.288;2024-01-07T01:23:21;9.93;;;8.93;;
9160;SDS011;4615;51.340;8.288;2024-01-07T01:25:48;9.73;;;8.73;;
9160;SDS011;4615;51.340;8.288;2024-01-07T01:28:16;9.90;;;8.90;;
9160;SDS011;4615;51.340;8.288;2024-01-07T01:30:42;9.80;;;8.80;;
9160;SDS011;4615;51.340;8.288;2024-01-07T01:33:09;9.70;;;8.70;;
9160;SDS011;4615;51.340;8.288;2024-01-07T01:35:35;9.77;;;8.77;;
9160;SDS011;4615;51.340;8.288;2024-01-07T01:38:01;10.07;;;9.07;;
9160;SDS011;4615;51.340;8.288;2024-01-07T01:40:28;8.65;;;7.85;;
9160;SDS011;4615;51.340;8.288;2024-01-07T01:42:54;9.13;;;8.23;;
9160;SDS011;4615;51.340;8.288;2024-01-07T01:45:22;9.15;;;8.25;;
9160;SDS011;4615;51.340;8.288;2024-01-07T01:47:49;8.63;;;7.82;;
9160;SDS011;4615;51.340;8.288;2024-01-07T01:50:16;8.80;;;8.00;;
9160;SDS011;4615;51.340;8.288;2024-01-07T01:52:42;8.73;;;7.93;;
9160;SDS011;4615;51.340;8.288;2024-01-07T01:55:09;8.48;;;7.68;;
9160;SDS011;4615;51.340;8.288;2024-01-07T01:57:36;9.10;;;8.23;;
9160;SDS011;4615;51.340;8.288;2024-01-07T02:00:03;9.60;;;8.70;;
9160;SDS011;4615;51.340;8.288;2024-01-07T02:02:31;9.70;;;8.70;;
9160;SDS011;4615;51.340;8.288;2024-01-07T02:04:59;10.10;;;9.10;;
9160;SDS011;4615;51.340;8.288;2024-01-07T02:07:25;10.80;;;9.70;;
9160;SDS011;4615;51.340;8.288;2024-01-07T02:09:52;10.27;;;9.25;;
9160;SDS011;4615;51.340;8.288;2024-01-07T02:12:19;11.70;;;10.25;;
9160;SDS011;4615;51.340;8.288;2024-01-07T02:14:45;11.47;;;10.27;;
9160;SDS011;4615;51.340;8.288;2024-01-07T02:17:11;11.90;;;10.60;;
9160;SDS011;4615;51.340;8.288;2024-01-07T02:19:39;13.38;;;11.60;;
9160;SDS011;4615;51.340;8.288;2024-01-07T02:22:05;14.10;;;12.20;;
9160;SDS011;4615;51.340;8.288;2024-01-07T02:24:33;12.67;;;11.30;;
9160;SDS011;4615;51.340;8.288;2024-01-07T02:26:59;14.05;;;12.10;;
9160;SDS011;4615;51.340;8.288;2024-01-07T02:29:27;14.07;;;12.57;;
9160;SDS011;4615;51.340;8.288;2024-01-07T02:31:53;13.68;;;11.98;;
9160;SDS011;4615;51.340;8.288;2024-01-07T02:34:20;13.60;;;12.20;;
9160;SDS011;4615;51.340;8.288;2024-01-07T02:36:46;14.23;;;12.70;;
9160;SDS011;4615;51.340;8.288;2024-01-07T02:39:12;14.07;;;12.55;;
9160;SDS011;4615;51.340;8.288;2024-01-07T02:41:40;13.57;;;12.18;;
9160;SDS011;4615;51.340;8.288;2024-01-07T02:44:06;13.15;;;11.60;;
9160;SDS011;4615;51.340;8.288;2024-01-07T02:46:33;12.65;;;11.35;;
9160;SDS011;4615;51.340;8.288;2024-01-07T02:48:59;11.90;;;10.70;;
9160;SDS011;4615;51.340;8.288;2024-01-07T02:51:25;12.23;;;11.02;;
9160;SDS011;4615;51.340;8.288;2024-01-07T02:53:52;11.82;;;10.63;;
9160;SDS011;4615;51.340;8.288;2024-01-07T02:56:18;9.95;;;9.05;;
9160;SDS011;4615;51.340;8.288;2024-01-07T02:58:46;10.35;;;9.35;;
9160;SDS011;4615;51.340;8.288;2024-01-07T03:01:12;9.55;;;8.65;;
9160;SDS011;4615;51.340;8.288;2024-01-07T03:03:38;9.02;;;8.13;;
9160;SDS011;4615;51.340;8.288;2024-01-07T03:06:05;8.00;;;7.20;;
9160;SDS011;4615;51.340;8.288;2024-01-07T03:08:31;7.07;;;6.38;;
9160;SDS011;4615;51.340;8.288;2024-01-07T03:10:58;7.13;;;6.53;;
9160;SDS011;4615;51.340;8.288;2024-01-07T03:13:24;7.67;;;6.97;;
9160;SDS011;4615;51.340;8.288;2024-01-07T03:15:52;8.32;;;7.53;;
9160;SDS011;4615;51.340;8.288;2024-01-07T03:18:18;9.27;;;8.27;;
9160;SDS011;4615;51.340;8.288;2024-01-07T03:20:44;10.50;;;9.25;;
9160;SDS011;4615;51.340;8.288;2024-01-07T03:23:11;11.32;;;9.95;;
9160;SDS011;4615;51.340;8.288;2024-01-07T03:25:37;12.35;;;10.50;;
9160;SDS011;4615;51.340;8.288;2024-01-07T03:28:04;12.27;;;10.77;;
9160;SDS011;4615;51.340;8.288;2024-01-07T03:30:30;14.05;;;11.43;;
9160;SDS011;4615;51.340;8.288;2024-01-07T03:32:58;12.63;;;10.80;;
9160;SDS011;4615;51.340;8.288;2024-01-07T03:35:24;12.52;;;10.85;;
9160;SDS011;4615;51.340;8.288;2024-01-07T03:37:50;13.50;;;11.10;;
9160;SDS011;4615;51.340;8.288;2024-01-07T03:40:17;12.20;;;10.90;;
9160;SDS011;4615;51.340;8.288;2024-01-07T03:42:43;13.68;;;11.05;;
9160;SDS011;4615;51.340;8.288;2024-01-07T03:45:10;12.27;;;10.63;;
9160;SDS011;4615;51.340;8.288;2024-01-07T03:47:36;12.63;;;11.07;;
9160;SDS011;4615;51.340;8.288;2024-01-07T03:50:04;12.68;;;10.70;;
9160;SDS011;4615;51.340;8.288;2024-01-07T03:52:30;12.88;;;11.00;;
9160;SDS011;4615;51.340;8.288;2024-01-07T03:54:58;12.52;;;11.00;;
9160;SDS011;4615;51.340;8.288;2024-01-07T03:57:24;12.00;;;10.70;;
9160;SDS011;4615;51.340;8.288;2024-01-07T03:59:50;12.18;;;10.88;;
9160;SDS011;4615;51.340;8.288;2024-01-07T04:02:17;13.23;;;11.07;;
9160;SDS011;4615;51.340;8.288;2024-01-07T04:04:43;11.95;;;10.68;;
9160;SDS011;4615;51.340;8.288;2024-01-07T04:07:11;12.77;;;11.38;;
9160;SDS011;4615;51.340;8.288;2024-01-07T04:09:37;12.30;;;11.00;;
9160;SDS011;4615;51.340;8.288;2024-01-07T04:12:04;12.45;;;11.15;;
9160;SDS011;4615;51.340;8.288;2024-01-07T04:14:30;13.13;;;11.05;;
9160;SDS011;4615;51.340;8.288;2024-01-07T04:16:58;13.13;;;11.35;;
9160;SDS011;4615;51.340;8.288;2024-01-07T04:19:25;15.52;;;12.82;;
9160;SDS011;4615;51.340;8.288;2024-01-07T04:21:51;17.42;;;13.23;;
9160;SDS011;4615;51.340;8.288;2024-01-07T04:24:19;16.13;;;13.23;;
9160;SDS011;4615;51.340;8.288;2024-01-07T04:26:45;16.37;;;13.90;;
9160;SDS011;4615;51.340;8.288;2024-01-07T04:29:12;16.77;;;14.07;;
9160;SDS011;4615;51.340;8.288;2024-01-07T04:31:38;18.35;;;14.82;;
9160;SDS011;4615;51.340;8.288;2024-01-07T04:34:04;17.20;;;14.55;;
9160;SDS011;4615;51.340;8.288;2024-01-07T04:36:31;17.20;;;14.45;;
9160;SDS011;4615;51.340;8.288;2024-01-07T04:38:57;19.70;;;16.10;;
9160;SDS011;4615;51.340;8.288;2024-01-07T04:41:25;20.20;;;16.35;;
9160;SDS011;4615;51.340;8.288;2024-01-07T04:43:51;19.17;;;16.20;;
9160;SDS011;4615;51.340;8.288;2024-01-07T04:46:18;20.88;;;16.73;;
9160;SDS011;4615;51.340;8.288;2024-01-07T04:48:44;19.90;;;16.70;;
9160;SDS011;4615;51.340;8.288;2024-01-07T04:51:11;18.88;;;15.93;;
9160;SDS011;4615;51.340;8.288;2024-01-07T04:53:37;19.73;;;16.50;;
9160;SDS011;4615;51.340;8.288;2024-01-07T04:56:04;19.47;;;16.60;;
9160;SDS011;4615;51.340;8.288;2024-01-07T04:58:31;20.50;;;16.85;;
9160;SDS011;4615;51.340;8.288;2024-01-07T05:00:58;19.48;;;17.00;;
9160;SDS011;4615;51.340;8.288;2024-01-07T05:03:24;18.52;;;16.52;;
9160;SDS011;4615;51.340;8.288;2024-01-07T05:05:51;18.58;;;16.48;;
9160;SDS011;4615;51.340;8.288;2024-01-07T05:08:17;18.65;;;16.60;;
9160;SDS011;4615;51.340;8.288;2024-01-07T05:10:43;18.50;;;16.50;;
9160;SDS011;4615;51.340;8.288;2024-01-07T05:13:10;18.10;;;16.20;;
9160;SDS011;4615;51.340;8.288;2024-01-07T05:15:37;18.83;;;16.85;;
9160;SDS011;4615;51.340;8.288;2024-01-07T05:18:06;18.75;;;16.75;;
9160;SDS011;4615;51.340;8.288;2024-01-07T05:20:33;17.60;;;15.70;;
9160;SDS011;4615;51.340;8.288;2024-01-07T05:22:59;18.08;;;16.17;;
9160;SDS011;4615;51.340;8.288;2024-01-07T05:25:25;18.13;;;16.23;;
9160;SDS011;4615;51.340;8.288;2024-01-07T05:27:53;17.80;;;16.00;;
9160;SDS011;4615;51.340;8.288;2024-01-07T05:30:19;17.63;;;15.77;;
9160;SDS011;4615;51.340;8.288;2024-01-07T05:32:48;18.25;;;16.27;;
9160;SDS011;4615;51.340;8.288;2024-01-07T05:35:15;18.58;;;16.08;;
9160;SDS011;4615;51.340;8.288;2024-01-07T05:37:41;18.00;;;16.10;;
9160;SDS011;4615;51.340;8.288;2024-01-07T05:40:08;17.67;;;15.88;;
9160;SDS011;4615;51.340;8.288;2024-01-07T05:42:34;17.80;;;15.38;;
9160;SDS011;4615;51.340;8.288;2024-01-07T05:45:01;15.98;;;14.25;;
9160;SDS011;4615;51.340;8.288;2024-01-07T05:47:27;15.60;;;13.90;;
9160;SDS011;4615;51.340;8.288;2024-01-07T05:49:56;15.43;;;13.83;;
9160;SDS011;4615;51.340;8.288;2024-01-07T05:52:22;14.43;;;12.88;;
9160;SDS011;4615;51.340;8.288;2024-01-07T05:54:49;13.13;;;11.73;;
9160;SDS011;4615;51.340;8.288;2024-01-07T05:57:15;13.50;;;12.10;;
9160;SDS011;4615;51.340;8.288;2024-01-07T05:59:43;13.38;;;11.98;;
9160;SDS011;4615;51.340;8.288;2024-01-07T06:02:09;13.68;;;12.27;;
9160;SDS011;4615;51.340;8.288;2024-01-07T06:04:36;13.10;;;11.80;;
9160;SDS011;4615;51.340;8.288;2024-01-07T06:07:04;13.98;;;12.63;;
9160;SDS011;4615;51.340;8.288;2024-01-07T06:09:31;13.50;;;12.20;;
9160;SDS011;4615;51.340;8.288;2024-01-07T06:11:57;13.80;;;12.40;;
9160;SDS011;4615;51.340;8.288;2024-01-07T06:14:23;12.40;;;11.20;;
9160;SDS011;4615;51.340;8.288;2024-01-07T06:16:50;11.80;;;10.70;;
9160;SDS011;4615;51.340;8.288;2024-01-07T06:19:17;11.93;;;10.73;;
9160;SDS011;4615;51.340;8.288;2024-01-07T06:21:43;11.20;;;10.10;;
9160;SDS011;4615;51.340;8.288;2024-01-07T06:24:11;11.25;;;10.15;;
9160;SDS011;4615;51.340;8.288;2024-01-07T06:26:37;11.70;;;10.50;;
9160;SDS011;4615;51.340;8.288;2024-01-07T06:29:05;12.15;;;10.93;;
9160;SDS011;4615;51.340;8.288;2024-01-07T06:31:31;12.15;;;10.95;;
9160;SDS011;4615;51.340;8.288;2024-01-07T06:33:59;13.10;;;11.80;;
9160;SDS011;4615;51.340;8.288;2024-01-07T06:36:25;12.55;;;11.32;;
9160;SDS011;4615;51.340;8.288;2024-01-07T06:38:52;13.43;;;11.83;;
9160;SDS011;4615;51.340;8.288;2024-01-07T06:41:20;12.68;;;11.48;;
9160;SDS011;4615;51.340;8.288;2024-01-07T06:43:46;13.70;;;12.30;;
9160;SDS011;4615;51.340;8.288;2024-01-07T06:46:15;11.40;;;10.20;;
9160;SDS011;4615;51.340;8.288;2024-01-07T06:48:41;10.18;;;9.18;;
9160;SDS011;4615;51.340;8.288;2024-01-07T06:51:07;9.70;;;8.70;;
9160;SDS011;4615;51.340;8.288;2024-01-07T06:53:34;9.68;;;8.77;;
9160;SDS011;4615;51.340;8.288;2024-01-07T06:56:00;10.18;;;9.18;;
9160;SDS011;4615;51.340;8.288;2024-01-07T06:58:28;11.07;;;9.93;;
9160;SDS011;4615;51.340;8.288;2024-01-07T07:00:54;9.98;;;8.98;;
9160;SDS011;4615;51.340;8.288;2024-01-07T07:03:21;10.73;;;9.68;;
9160;SDS011;4615;51.340;8.288;2024-01-07T07:05:47;10.57;;;9.57;;
9160;SDS011;4615;51.340;8.288;2024-01-07T07:08:13;11.07;;;9.98;;
9160;SDS011;4615;51.340;8.288;2024-01-07T07:10:40;10.95;;;9.90;;
9160;SDS011;4615;51.340;8.288;2024-01-07T07:13:06;11.38;;;10.27;;
9160;SDS011;4615;51.340;8.288;2024-01-07T07:15:35;11.02;;;9.90;;
9160;SDS011;4615;51.340;8.288;2024-01-07T07:18:02;9.73;;;8.73;;
9160;SDS011;4615;51.340;8.288;2024-01-07T07:20:28;9.07;;;8.27;;
9160;SDS011;4615;51.340;8.288;2024-01-07T07:22:55;9.23;;;8.35;;
9160;SDS011;4615;51.340;8.288;2024-01-07T07:25:21;9.23;;;8.43;;
9160;SDS011;4615;51.340;8.288;2024-01-07T07:27:47;8.90;;;8.10;;
9160;SDS011;4615;51.340;8.288;2024-01-07T07:30:14;8.38;;;7.68;;
9160;SDS011;4615;51.340;8.288;2024-01-07T07:32:41;7.72;;;7.03;;
9160;SDS011;4615;51.340;8.288;2024-01-07T07:35:08;7.97;;;7.18;;
9160;SDS011;4615;51.340;8.288;2024-01-07T07:37:34;7.65;;;6.95;;
9160;SDS011;4615;51.340;8.288;2024-01-07T07:40:00;7.72;;;7.03;;
9160;SDS011;4615;51.340;8.288;2024-01-07T07:42:28;7.75;;;7.05;;
9160;SDS011;4615;51.340;8.288;2024-01-07T07:44:54;7.93;;;7.23;;
9160;SDS011;4615;51.340;8.288;2024-01-07T07:47:20;7.75;;;7.05;;
9160;SDS011;4615;51.340;8.288;2024-01-07T07:49:48;8.25;;;7.55;;
9160;SDS011;4615;51.340;8.288;2024-01-07T07:52:15;8.38;;;7.57;;
9160;SDS011;4615;51.340;8.288;2024-01-07T07:54:47;8.50;;;7.70;;
9160;SDS011;4615;51.340;8.288;2024-01-07T07:57:13;8.60;;;7.80;;
9160;SDS011;4615;51.340;8.288;2024-01-07T07:59:39;9.18;;;8.38;;
9160;SDS011;4615;51.340;8.288;2024-01-07T08:02:06;9.00;;;8.20;;
9160;SDS011;4615;51.340;8.288;2024-01-07T08:04:32;9.57;;;8.70;;
9160;SDS011;4615;51.340;8.288;2024-01-07T08:07:00;9.60;;;8.70;;
9160;SDS011;4615;51.340;8.288;2024-01-07T08:09:27;10.27;;;9.30;;
9160;SDS011;4615;51.340;8.288;2024-01-07T08:11:53;9.85;;;8.95;;
9160;SDS011;4615;51.340;8.288;2024-01-07T08:14:20;10.10;;;9.20;;
9160;SDS011;4615;51.340;8.288;2024-01-07T08:16:46;10.93;;;9.27;;
9160;SDS011;4615;51.340;8.288;2024-01-07T08:19:12;9.90;;;9.00;;
9160;SDS011;4615;51.340;8.288;2024-01-07T08:21:39;10.27;;;9.38;;
9160;SDS011;4615;51.340;8.288;2024-01-07T08:24:06;9.77;;;8.88;;
9160;SDS011;4615;51.340;8.288;2024-01-07T08:26:33;9.50;;;8.60;;
9160;SDS011;4615;51.340;8.288;2024-01-07T08:28:59;9.65;;;8.75;;
9160;SDS011;4615;51.340;8.288;2024-01-07T08:31:26;10.48;;;9.48;;
9160;SDS011;4615;51.340;8.288;2024-01-07T08:33:52;10.30;;;9.30;;
9160;SDS011;4615;51.340;8.288;2024-01-07T08:36:18;10.27;;;9.27;;
9160;SDS011;4615;51.340;8.288;2024-01-07T08:38:45;10.43;;;9.43;;
9160;SDS011;4615;51.340;8.288;2024-01-07T08:41:13;11.48;;;10.38;;
9160;SDS011;4615;51.340;8.288;2024-01-07T08:43:41;11.60;;;10.40;;
9160;SDS011;4615;51.340;8.288;2024-01-07T08:46:07;11.15;;;10.05;;
9160;SDS011;4615;51.340;8.288;2024-01-07T08:48:33;11.75;;;10.65;;
9160;SDS011;4615;51.340;8.288;2024-01-07T08:51:00;11.23;;;10.13;;
9160;SDS011;4615;51.340;8.288;2024-01-07T08:53:26;11.53;;;10.43;;
9160;SDS011;4615;51.340;8.288;2024-01-07T08:55:53;11.75;;;10.55;;
9160;SDS011;4615;51.340;8.288;2024-01-07T08:58:20;11.35;;;10.25;;
9160;SDS011;4615;51.340;8.288;2024-01-07T09:00:47;9.85;;;8.85;;
9160;SDS011;4615;51.340;8.288;2024-01-07T09:03:13;8.95;;;8.05;;
9160;SDS011;4615;51.340;8.288;2024-01-07T09:05:40;9.30;;;8.40;;
9160;SDS011;4615;51.340;8.288;2024-01-07T09:08:06;8.85;;;7.95;;
9160;SDS011;4615;51.340;8.288;2024-01-07T09:10:33;8.80;;;7.90;;
9160;SDS011;4615;51.340;8.288;2024-01-07T09:12:59;8.20;;;7.40;;
9160;SDS011;4615;51.340;8.288;2024-01-07T09:15:27;8.23;;;7.45;;
9160;SDS011;4615;51.340;8.288;2024-01-07T09:17:53;9.30;;;8.40;;
9160;SDS011;4615;51.340;8.288;2024-01-07T09:20:20;9.07;;;8.18;;
9160;SDS011;4615;51.340;8.288;2024-01-07T09:22:46;9.52;;;8.55;;
9160;SDS011;4615;51.340;8.288;2024-01-07T09:25:13;10.82;;;9.75;;
9160;SDS011;4615;51.340;8.288;2024-01-07T09:27:39;11.18;;;10.07;;
9160;SDS011;4615;51.340;8.288;2024-01-07T09:30:06;10.57;;;9.57;;
9160;SDS011;4615;51.340;8.288;2024-01-07T09:32:37;9.13;;;8.32;;
9160;SDS011;4615;51.340;8.288;2024-01-07T09:35:03;8.68;;;7.78;;
9160;SDS011;4615;51.340;8.288;2024-01-07T09:37:30;9.27;;;8.35;;
9160;SDS011;4615;51.340;8.288;2024-01-07T09:39:57;9.77;;;8.75;;
9160;SDS011;4615;51.340;8.288;2024-01-07T09:42:23;9.85;;;8.85;;
9160;SDS011;4615;51.340;8.288;2024-01-07T09:44:50;10.40;;;9.30;;
9160;SDS011;4615;51.340;8.288;2024-01-07T09:47:16;10.85;;;9.65;;
9160;SDS011;4615;51.340;8.288;2024-01-07T09:49:44;10.02;;;9.02;;
9160;SDS011;4615;51.340;8.288;2024-01-07T09:52:11;9.98;;;8.98;;
9160;SDS011;4615;51.340;8.288;2024-01-07T09:54:37;9.68;;;8.68;;
9160;SDS011;4615;51.340;8.288;2024-01-07T09:57:05;9.90;;;8.88;;
9160;SDS011;4615;51.340;8.288;2024-01-07T09:59:32;10.83;;;8.80;;
9160;SDS011;4615;51.340;8.288;2024-01-07T10:01:59;9.93;;;8.63;;
9160;SDS011;4615;51.340;8.288;2024-01-07T10:04:26;10.75;;;8.73;;
9160;SDS011;4615;51.340;8.288;2024-01-07T10:06:54;9.75;;;8.57;;
9160;SDS011;4615;51.340;8.288;2024-01-07T10:09:21;9.70;;;7.70;;
9160;SDS011;4615;51.340;8.288;2024-01-07T10:11:48;8.95;;;7.78;;
9160;SDS011;4615;51.340;8.288;2024-01-07T10:14:15;9.07;;;7.55;;
9160;SDS011;4615;51.340;8.288;2024-01-07T10:16:41;9.63;;;7.30;;
9160;SDS011;4615;51.340;8.288;2024-01-07T10:19:08;10.32;;;7.70;;
9160;SDS011;4615;51.340;8.288;2024-01-07T10:21:34;9.57;;;7.35;;
9160;SDS011;4615;51.340;8.288;2024-01-07T10:24:08;8.63;;;6.68;;
9160;SDS011;4615;51.340;8.288;2024-01-07T10:26:35;8.88;;;7.05;;
9160;SDS011;4615;51.340;8.288;2024-01-07T10:29:02;8.90;;;6.72;;
9160;SDS011;4615;51.340;8.288;2024-01-07T10:31:28;9.20;;;6.30;;
9160;SDS011;4615;51.340;8.288;2024-01-07T10:33:56;8.87;;;6.60;;
9160;SDS011;4615;51.340;8.288;2024-01-07T10:36:22;8.13;;;6.47;;
9160;SDS011;4615;51.340;8.288;2024-01-07T10:38:50;7.82;;;6.15;;
9160;SDS011;4615;51.340;8.288;2024-01-07T10:41:18;7.97;;;6.20;;
9160;SDS011;4615;51.340;8.288;2024-01-07T10:43:45;7.55;;;5.75;;
9160;SDS011;4615;51.340;8.288;2024-01-07T10:46:12;7.03;;;5.50;;
9160;SDS011;4615;51.340;8.288;2024-01-07T10:48:42;6.13;;;5.50;;
9160;SDS011;4615;51.340;8.288;2024-01-07T10:51:11;5.97;;;5.30;;
9160;SDS011;4615;51.340;8.288;2024-01-07T10:53:40;6.40;;;5.53;;
9160;SDS011;4615;51.340;8.288;2024-01-07T10:56:09;7.03;;;5.47;;
9160;SDS011;4615;51.340;8.288;2024-01-07T10:58:38;5.43;;;4.67;;
9160;SDS011;4615;51.340;8.288;2024-01-07T11:01:05;5.80;;;4.53;;
9160;SDS011;4615;51.340;8.288;2024-01-07T11:03:33;5.03;;;4.43;;
9160;SDS011;4615;51.340;8.288;2024-01-07T11:06:03;4.80;;;4.30;;
9160;SDS011;4615;51.340;8.288;2024-01-07T11:08:32;5.22;;;4.68;;
9160;SDS011;4615;51.340;8.288;2024-01-07T11:11:03;5.63;;;4.60;;
9160;SDS011;4615;51.340;8.288;2024-01-07T11:13:31;5.97;;;4.70;;
9160;SDS011;4615;51.340;8.288;2024-01-07T11:15:59;5.68;;;4.68;;
9160;SDS011;4615;51.340;8.288;2024-01-07T11:18:26;5.50;;;4.50;;
9160;SDS011;4615;51.340;8.288;2024-01-07T11:20:57;5.70;;;4.57;;
9160;SDS011;4615;51.340;8.288;2024-01-07T11:23:27;5.80;;;4.20;;
9160;SDS011;4615;51.340;8.288;2024-01-07T11:25:55;5.00;;;4.50;;
9160;SDS011;4615;51.340;8.288;2024-01-07T11:28:30;3.78;;;3.42;;
9160;SDS011;4615;51.340;8.288;2024-01-07T11:31:09;3.78;;;3.30;;
9160;SDS011;4615;51.340;8.288;2024-01-07T11:33:36;5.35;;;3.60;;
9160;SDS011;4615;51.340;8.288;2024-01-07T11:36:02;3.72;;;3.38;;
9160;SDS011;4615;51.340;8.288;2024-01-07T11:38:30;4.20;;;3.67;;
9160;SDS011;4615;51.340;8.288;2024-01-07T11:40:57;3.75;;;3.15;;
9160;SDS011;4615;51.340;8.288;2024-01-07T11:43:24;3.58;;;3.20;;
9160;SDS011;4615;51.340;8.288;2024-01-07T11:45:50;3.67;;;2.92;;
9160;SDS011;4615;51.340;8.288;2024-01-07T11:48:20;3.80;;;3.50;;
9160;SDS011;4615;51.340;8.288;2024-01-07T11:50:46;5.27;;;4.30;;
9160;SDS011;4615;51.340;8.288;2024-01-07T11:53:12;4.25;;;3.65;;
9160;SDS011;4615;51.340;8.288;2024-01-07T11:55:39;4.45;;;4.03;;
9160;SDS011;4615;51.340;8.288;2024-01-07T11:58:05;4.38;;;3.97;;
9160;SDS011;4615;51.340;8.288;2024-01-07T12:00:32;4.20;;;3.80;;
9160;SDS011;4615;51.340;8.288;2024-01-07T12:02:58;5.03;;;3.70;;
9160;SDS011;4615;51.340;8.288;2024-01-07T12:05:26;3.63;;;3.30;;
9160;SDS011;4615;51.340;8.288;2024-01-07T12:07:53;4.00;;;3.60;;
9160;SDS011;4615;51.340;8.288;2024-01-07T12:10:19;3.90;;;3.50;;
9160;SDS011;4615;51.340;8.288;2024-01-07T12:12:45;4.18;;;3.78;;
9160;SDS011;4615;51.340;8.288;2024-01-07T12:15:12;3.45;;;3.15;;
9160;SDS011;4615;51.340;8.288;2024-01-07T12:17:38;4.30;;;3.50;;
9160;SDS011;4615;51.340;8.288;2024-01-07T12:20:05;3.83;;;3.42;;
9160;SDS011;4615;51.340;8.288;2024-01-07T12:22:36;3.42;;;3.08;;
9160;SDS011;4615;51.340;8.288;2024-01-07T12:25:04;3.25;;;2.95;;
9160;SDS011;4615;51.340;8.288;2024-01-07T12:27:31;3.75;;;2.90;;
9160;SDS011;4615;51.340;8.288;2024-01-07T12:29:57;3.40;;;3.10;;
9160;SDS011;4615;51.340;8.288;2024-01-07T12:32:25;3.13;;;2.83;;
9160;SDS011;4615;51.340;8.288;2024-01-07T12:34:52;3.25;;;2.80;;
9160;SDS011;4615;51.340;8.288;2024-01-07T12:37:18;4.35;;;3.10;;
9160;SDS011;4615;51.340;8.288;2024-01-07T12:39:46;3.05;;;2.75;;
9160;SDS011;4615;51.340;8.288;2024-01-07T12:42:12;2.92;;;2.63;;
9160;SDS011;4615;51.340;8.288;2024-01-07T12:44:39;3.20;;;2.80;;
9160;SDS011;4615;51.340;8.288;2024-01-07T12:47:05;3.22;;;2.70;;
9160;SDS011;4615;51.340;8.288;2024-01-07T12:49:32;3.10;;;2.80;;
9160;SDS011;4615;51.340;8.288;2024-01-07T12:51:58;3.13;;;2.83;;
9160;SDS011;4615;51.340;8.288;2024-01-07T12:54:24;3.03;;;2.72;;
9160;SDS011;4615;51.340;8.288;2024-01-07T12:56:52;3.00;;;2.70;;
9160;SDS011;4615;51.340;8.288;2024-01-07T12:59:18;3.05;;;2.75;;
9160;SDS011;4615;51.340;8.288;2024-01-07T13:01:45;3.22;;;2.83;;
9160;SDS011;4615;51.340;8.288;2024-01-07T13:04:11;2.85;;;2.50;;
9160;SDS011;4615;51.340;8.288;2024-01-07T13:06:38;3.10;;;2.80;;
9160;SDS011;4615;51.340;8.288;2024-01-07T13:09:04;2.95;;;2.50;;
9160;SDS011;4615;51.340;8.288;2024-01-07T13:11:31;3.00;;;2.70;;
9160;SDS011;4615;51.340;8.288;2024-01-07T13:13:59;2.97;;;2.70;;
9160;SDS011;4615;51.340;8.288;2024-01-07T13:16:26;2.72;;;2.50;;
9160;SDS011;4615;51.340;8.288;2024-01-07T13:18:53;3.22;;;2.92;;
9160;SDS011;4615;51.340;8.288;2024-01-07T13:21:19;3.42;;;3.03;;
9160;SDS011;4615;51.340;8.288;2024-01-07T13:23:46;4.07;;;3.67;;
9160;SDS011;4615;51.340;8.288;2024-01-07T13:26:12;3.47;;;3.00;;
9160;SDS011;4615;51.340;8.288;2024-01-07T13:28:39;7.03;;;3.33;;
9160;SDS011;4615;51.340;8.288;2024-01-07T13:31:07;3.17;;;2.70;;
9160;SDS011;4615;51.340;8.288;2024-01-07T13:33:37;2.80;;;2.38;;
9160;SDS011;4615;51.340;8.288;2024-01-07T13:36:03;2.78;;;2.50;;
9160;SDS011;4615;51.340;8.288;2024-01-07T13:38:34;3.20;;;2.90;;
9160;SDS011;4615;51.340;8.288;2024-01-07T13:41:00;3.80;;;2.90;;
9160;SDS011;4615;51.340;8.288;2024-01-07T13:43:27;3.45;;;2.95;;
9160;SDS011;4615;51.340;8.288;2024-01-07T13:45:54;3.33;;;2.63;;
9160;SDS011;4615;51.340;8.288;2024-01-07T13:48:22;2.60;;;2.30;;
9160;SDS011;4615;51.340;8.288;2024-01-07T13:50:48;3.10;;;2.27;;
9160;SDS011;4615;51.340;8.288;2024-01-07T13:53:15;2.55;;;2.33;;
9160;SDS011;4615;51.340;8.288;2024-01-07T13:55:41;3.20;;;2.50;;
9160;SDS011;4615;51.340;8.288;2024-01-07T13:58:07;3.72;;;2.47;;
9160;SDS011;4615;51.340;8.288;2024-01-07T14:00:34;3.35;;;2.60;;
9160;SDS011;4615;51.340;8.288;2024-01-07T14:03:00;3.17;;;2.63;;
9160;SDS011;4615;51.340;8.288;2024-01-07T14:05:28;3.05;;;2.53;;
9160;SDS011;4615;51.340;8.288;2024-01-07T14:07:55;2.70;;;2.50;;
9160;SDS011;4615;51.340;8.288;2024-01-07T14:10:21;3.93;;;2.70;;
9160;SDS011;4615;51.340;8.288;2024-01-07T14:12:47;3.30;;;3.00;;
9160;SDS011;4615;51.340;8.288;2024-01-07T14:15:14;3.22;;;2.70;;
9160;SDS011;4615;51.340;8.288;2024-01-07T14:17:42;4.00;;;2.97;;
9160;SDS011;4615;51.340;8.288;2024-01-07T14:20:08;3.72;;;3.33;;
9160;SDS011;4615;51.340;8.288;2024-01-07T14:22:38;3.10;;;2.80;;
9160;SDS011;4615;51.340;8.288;2024-01-07T14:25:05;3.05;;;2.75;;
9160;SDS011;4615;51.340;8.288;2024-01-07T14:27:32;4.10;;;2.90;;
9160;SDS011;4615;51.340;8.288;2024-01-07T14:29:58;3.97;;;3.08;;
9160;SDS011;4615;51.340;8.288;2024-01-07T14:32:24;2.63;;;2.42;;
9160;SDS011;4615;51.340;8.288;2024-01-07T14:34:51;4.10;;;2.78;;
9160;SDS011;4615;51.340;8.288;2024-01-07T14:37:17;2.70;;;2.50;;
9160;SDS011;4615;51.340;8.288;2024-01-07T14:39:46;2.63;;;2.40;;
9160;SDS011;4615;51.340;8.288;2024-01-07T14:42:12;2.83;;;2.40;;
9160;SDS011;4615;51.340;8.288;2024-01-07T14:44:39;2.80;;;2.50;;
9160;SDS011;4615;51.340;8.288;2024-01-07T14:47:05;3.30;;;3.00;;
9160;SDS011;4615;51.340;8.288;2024-01-07T14:49:31;4.90;;;2.60;;
9160;SDS011;4615;51.340;8.288;2024-01-07T14:51:58;2.85;;;2.60;;
9160;SDS011;4615;51.340;8.288;2024-01-07T14:54:24;2.78;;;2.50;;
9160;SDS011;4615;51.340;8.288;2024-01-07T14:56:52;3.17;;;2.50;;
9160;SDS011;4615;51.340;8.288;2024-01-07T14:59:18;3.35;;;2.80;;
9160;SDS011;4615;51.340;8.288;2024-01-07T15:01:45;4.30;;;2.90;;